Terminal Aerodrome Forecast
Issued by NWS Cleveland, OH

Home | Current Version | Previous Version | Graphics & Text | Print | Product List | Glossary On
Versions: 1 2 3 4 5 6 7 8 9 10 11 12
955
FTUS41 KCLE 200532
TAFERI
TAF
KERI 200532Z 2006/2106 00000KT P6SM FEW250
     FM201400 22005KT P6SM BKN200
     FM202100 24007KT P6SM VCTS BKN045CB
     FM210500 25006KT 5SM BR BKN050=

USA.gov is the U.S. government's official web portal to all federal, state and local government web resources and services.